sensor_id;sensor_type;location;lat;lon;timestamp;temperature;humidity
36442;DHT22;64346;50.820;16.274;2023-03-19T00:00:48;9.00;62.10
36442;DHT22;64346;50.820;16.274;2023-03-19T00:03:36;8.90;61.80
36442;DHT22;64346;50.820;16.274;2023-03-19T00:06:05;9.00;61.80
36442;DHT22;64346;50.820;16.274;2023-03-19T00:08:32;9.00;62.40
36442;DHT22;64346;50.820;16.274;2023-03-19T00:11:13;9.10;61.60
36442;DHT22;64346;50.820;16.274;2023-03-19T00:13:40;9.10;61.60
36442;DHT22;64346;50.820;16.274;2023-03-19T00:16:10;9.20;61.60
36442;DHT22;64346;50.820;16.274;2023-03-19T00:18:37;9.20;61.20
36442;DHT22;64346;50.820;16.274;2023-03-19T00:21:06;9.20;61.40
36442;DHT22;64346;50.820;16.274;2023-03-19T00:23:34;9.10;61.40
36442;DHT22;64346;50.820;16.274;2023-03-19T00:26:02;9.00;61.50
36442;DHT22;64346;50.820;16.274;2023-03-19T00:28:29;9.00;61.90
36442;DHT22;64346;50.820;16.274;2023-03-19T00:30:56;8.90;62.00
36442;DHT22;64346;50.820;16.274;2023-03-19T00:33:24;8.90;62.10
36442;DHT22;64346;50.820;16.274;2023-03-19T00:35:51;8.80;62.10
36442;DHT22;64346;50.820;16.274;2023-03-19T00:38:19;8.80;62.40
36442;DHT22;64346;50.820;16.274;2023-03-19T00:40:46;8.70;62.50
36442;DHT22;64346;50.820;16.274;2023-03-19T00:43:13;8.70;62.60
36442;DHT22;64346;50.820;16.274;2023-03-19T00:45:40;8.60;62.70
36442;DHT22;64346;50.820;16.274;2023-03-19T00:48:08;8.60;62.80
36442;DHT22;64346;50.820;16.274;2023-03-19T00:50:35;8.60;62.90
36442;DHT22;64346;50.820;16.274;2023-03-19T00:53:02;8.60;63.10
36442;DHT22;64346;50.820;16.274;2023-03-19T00:55:29;8.60;63.30
36442;DHT22;64346;50.820;16.274;2023-03-19T00:57:57;8.60;63.30
36442;DHT22;64346;50.820;16.274;2023-03-19T01:00:26;8.60;63.20
36442;DHT22;64346;50.820;16.274;2023-03-19T01:02:54;8.60;63.40
36442;DHT22;64346;50.820;16.274;2023-03-19T01:05:21;8.50;63.30
36442;DHT22;64346;50.820;16.274;2023-03-19T01:07:49;8.50;63.50
36442;DHT22;64346;50.820;16.274;2023-03-19T01:10:20;8.50;63.40
36442;DHT22;64346;50.820;16.274;2023-03-19T01:12:50;8.50;63.50
36442;DHT22;64346;50.820;16.274;2023-03-19T01:15:18;8.50;63.50
36442;DHT22;64346;50.820;16.274;2023-03-19T01:17:48;8.50;63.60
36442;DHT22;64346;50.820;16.274;2023-03-19T01:20:17;8.50;63.70
36442;DHT22;64346;50.820;16.274;2023-03-19T01:22:45;8.50;64.00
36442;DHT22;64346;50.820;16.274;2023-03-19T01:25:13;8.40;64.00
36442;DHT22;64346;50.820;16.274;2023-03-19T01:27:42;8.40;64.10
36442;DHT22;64346;50.820;16.274;2023-03-19T01:30:10;8.40;64.00
36442;DHT22;64346;50.820;16.274;2023-03-19T01:32:38;8.40;64.00
36442;DHT22;64346;50.820;16.274;2023-03-19T01:35:07;8.50;64.20
36442;DHT22;64346;50.820;16.274;2023-03-19T01:37:35;8.50;64.30
36442;DHT22;64346;50.820;16.274;2023-03-19T01:40:09;8.50;64.20
36442;DHT22;64346;50.820;16.274;2023-03-19T01:45:32;8.50;64.40
36442;DHT22;64346;50.820;16.274;2023-03-19T01:48:00;8.50;64.40
36442;DHT22;64346;50.820;16.274;2023-03-19T01:50:36;8.50;64.50
36442;DHT22;64346;50.820;16.274;2023-03-19T01:53:07;8.50;64.60
36442;DHT22;64346;50.820;16.274;2023-03-19T01:55:39;8.50;64.60
36442;DHT22;64346;50.820;16.274;2023-03-19T01:58:06;8.50;64.70
36442;DHT22;64346;50.820;16.274;2023-03-19T02:00:35;8.50;64.80
36442;DHT22;64346;50.820;16.274;2023-03-19T02:03:04;8.50;64.90
36442;DHT22;64346;50.820;16.274;2023-03-19T02:05:32;8.40;65.00
36442;DHT22;64346;50.820;16.274;2023-03-19T02:08:03;8.40;65.10
36442;DHT22;64346;50.820;16.274;2023-03-19T02:10:31;8.40;65.30
36442;DHT22;64346;50.820;16.274;2023-03-19T02:13:02;8.50;65.50
36442;DHT22;64346;50.820;16.274;2023-03-19T02:15:29;8.40;65.70
36442;DHT22;64346;50.820;16.274;2023-03-19T02:17:57;8.40;66.00
36442;DHT22;64346;50.820;16.274;2023-03-19T02:28:12;8.30;67.00
36442;DHT22;64346;50.820;16.274;2023-03-19T02:30:42;8.30;67.30
36442;DHT22;64346;50.820;16.274;2023-03-19T02:33:16;8.30;67.70
36442;DHT22;64346;50.820;16.274;2023-03-19T02:35:51;8.30;68.00
36442;DHT22;64346;50.820;16.274;2023-03-19T02:38:21;8.20;68.10
36442;DHT22;64346;50.820;16.274;2023-03-19T02:41:02;8.20;68.40
36442;DHT22;64346;50.820;16.274;2023-03-19T02:43:31;8.20;68.90
36442;DHT22;64346;50.820;16.274;2023-03-19T02:46:03;8.20;69.00
36442;DHT22;64346;50.820;16.274;2023-03-19T02:48:30;8.20;69.30
36442;DHT22;64346;50.820;16.274;2023-03-19T02:50:58;8.10;69.90
36442;DHT22;64346;50.820;16.274;2023-03-19T02:53:25;8.10;70.10
36442;DHT22;64346;50.820;16.274;2023-03-19T02:55:52;8.10;70.50
36442;DHT22;64346;50.820;16.274;2023-03-19T02:58:19;8.10;70.90
36442;DHT22;64346;50.820;16.274;2023-03-19T03:03:15;8.10;71.60
36442;DHT22;64346;50.820;16.274;2023-03-19T03:05:42;8.00;71.70
36442;DHT22;64346;50.820;16.274;2023-03-19T03:08:09;8.00;71.90
36442;DHT22;64346;50.820;16.274;2023-03-19T03:10:39;8.00;72.00
36442;DHT22;64346;50.820;16.274;2023-03-19T03:13:06;8.00;72.30
36442;DHT22;64346;50.820;16.274;2023-03-19T03:15:34;8.00;72.60
36442;DHT22;64346;50.820;16.274;2023-03-19T03:18:01;8.10;72.80
36442;DHT22;64346;50.820;16.274;2023-03-19T03:20:28;8.00;73.10
36442;DHT22;64346;50.820;16.274;2023-03-19T03:22:57;8.00;73.10
36442;DHT22;64346;50.820;16.274;2023-03-19T03:25:27;8.00;73.30
36442;DHT22;64346;50.820;16.274;2023-03-19T03:27:57;8.00;73.60
36442;DHT22;64346;50.820;16.274;2023-03-19T03:30:27;8.00;73.70
36442;DHT22;64346;50.820;16.274;2023-03-19T03:32:54;8.00;74.20
36442;DHT22;64346;50.820;16.274;2023-03-19T03:35:21;8.00;74.20
36442;DHT22;64346;50.820;16.274;2023-03-19T03:37:49;8.00;74.40
36442;DHT22;64346;50.820;16.274;2023-03-19T03:40:17;8.00;74.80
36442;DHT22;64346;50.820;16.274;2023-03-19T03:42:44;8.00;74.60
36442;DHT22;64346;50.820;16.274;2023-03-19T03:45:12;8.00;74.90
36442;DHT22;64346;50.820;16.274;2023-03-19T03:47:39;8.00;74.90
36442;DHT22;64346;50.820;16.274;2023-03-19T03:50:07;8.00;74.80
36442;DHT22;64346;50.820;16.274;2023-03-19T03:52:35;8.00;74.90
36442;DHT22;64346;50.820;16.274;2023-03-19T03:55:05;8.00;75.20
36442;DHT22;64346;50.820;16.274;2023-03-19T03:57:34;8.00;75.30
36442;DHT22;64346;50.820;16.274;2023-03-19T04:00:02;8.00;75.70
36442;DHT22;64346;50.820;16.274;2023-03-19T04:02:30;8.00;76.10
36442;DHT22;64346;50.820;16.274;2023-03-19T04:04:57;8.00;76.10
36442;DHT22;64346;50.820;16.274;2023-03-19T04:07:25;8.00;76.40
36442;DHT22;64346;50.820;16.274;2023-03-19T04:09:53;7.90;76.50
36442;DHT22;64346;50.820;16.274;2023-03-19T04:12:20;7.90;76.70
36442;DHT22;64346;50.820;16.274;2023-03-19T04:14:49;7.90;77.10
36442;DHT22;64346;50.820;16.274;2023-03-19T04:17:19;8.00;77.30
36442;DHT22;64346;50.820;16.274;2023-03-19T04:19:48;8.00;77.50
36442;DHT22;64346;50.820;16.274;2023-03-19T04:22:18;7.90;78.00
36442;DHT22;64346;50.820;16.274;2023-03-19T04:24:47;7.90;78.30
36442;DHT22;64346;50.820;16.274;2023-03-19T04:27:17;7.90;78.40
36442;DHT22;64346;50.820;16.274;2023-03-19T04:29:46;7.80;78.40
36442;DHT22;64346;50.820;16.274;2023-03-19T04:32:13;7.80;78.50
36442;DHT22;64346;50.820;16.274;2023-03-19T04:34:43;7.80;78.60
36442;DHT22;64346;50.820;16.274;2023-03-19T04:37:12;7.80;78.70
36442;DHT22;64346;50.820;16.274;2023-03-19T04:39:42;7.80;78.70
36442;DHT22;64346;50.820;16.274;2023-03-19T04:42:09;7.80;78.90
36442;DHT22;64346;50.820;16.274;2023-03-19T04:44:39;7.80;78.80
36442;DHT22;64346;50.820;16.274;2023-03-19T04:47:09;7.80;79.20
36442;DHT22;64346;50.820;16.274;2023-03-19T04:49:39;7.80;79.40
36442;DHT22;64346;50.820;16.274;2023-03-19T04:52:06;7.80;79.30
36442;DHT22;64346;50.820;16.274;2023-03-19T04:54:35;7.80;79.60
36442;DHT22;64346;50.820;16.274;2023-03-19T04:57:02;7.80;79.70
36442;DHT22;64346;50.820;16.274;2023-03-19T04:59:30;7.80;79.80
36442;DHT22;64346;50.820;16.274;2023-03-19T05:01:57;7.80;80.20
36442;DHT22;64346;50.820;16.274;2023-03-19T05:04:24;7.90;80.50
36442;DHT22;64346;50.820;16.274;2023-03-19T05:06:53;7.80;80.80
36442;DHT22;64346;50.820;16.274;2023-03-19T05:09:21;7.80;81.30
36442;DHT22;64346;50.820;16.274;2023-03-19T05:11:48;7.90;81.50
36442;DHT22;64346;50.820;16.274;2023-03-19T05:14:17;8.00;81.40
36442;DHT22;64346;50.820;16.274;2023-03-19T05:16:47;8.20;80.90
36442;DHT22;64346;50.820;16.274;2023-03-19T05:19:14;8.40;80.20
36442;DHT22;64346;50.820;16.274;2023-03-19T05:21:42;8.70;79.00
36442;DHT22;64346;50.820;16.274;2023-03-19T05:24:12;9.00;77.90
36442;DHT22;64346;50.820;16.274;2023-03-19T05:26:41;9.00;77.40
36442;DHT22;64346;50.820;16.274;2023-03-19T05:29:09;8.90;77.70
36442;DHT22;64346;50.820;16.274;2023-03-19T05:31:37;8.90;77.60
36442;DHT22;64346;50.820;16.274;2023-03-19T05:34:07;8.90;77.60
36442;DHT22;64346;50.820;16.274;2023-03-19T05:36:34;8.90;77.60
36442;DHT22;64346;50.820;16.274;2023-03-19T05:39:03;9.10;77.00
36442;DHT22;64346;50.820;16.274;2023-03-19T05:41:30;9.50;76.10
36442;DHT22;64346;50.820;16.274;2023-03-19T05:43:58;9.90;75.00
36442;DHT22;64346;50.820;16.274;2023-03-19T05:46:27;10.30;73.70
36442;DHT22;64346;50.820;16.274;2023-03-19T05:48:54;10.20;73.20
36442;DHT22;64346;50.820;16.274;2023-03-19T05:51:21;10.20;73.50
36442;DHT22;64346;50.820;16.274;2023-03-19T05:53:51;10.20;73.30
36442;DHT22;64346;50.820;16.274;2023-03-19T05:56:20;10.30;73.00
36442;DHT22;64346;50.820;16.274;2023-03-19T05:58:48;10.60;72.30
36442;DHT22;64346;50.820;16.274;2023-03-19T06:01:15;10.90;71.40
36442;DHT22;64346;50.820;16.274;2023-03-19T06:03:44;11.30;70.10
36442;DHT22;64346;50.820;16.274;2023-03-19T06:06:14;11.70;69.20
36442;DHT22;64346;50.820;16.274;2023-03-19T06:08:42;11.60;68.90
36442;DHT22;64346;50.820;16.274;2023-03-19T06:11:09;11.30;69.20
36442;DHT22;64346;50.820;16.274;2023-03-19T06:13:36;11.50;69.40
36442;DHT22;64346;50.820;16.274;2023-03-19T06:16:03;11.90;68.30
36442;DHT22;64346;50.820;16.274;2023-03-19T06:18:31;12.30;67.50
36442;DHT22;64346;50.820;16.274;2023-03-19T06:20:58;12.60;66.90
36442;DHT22;64346;50.820;16.274;2023-03-19T06:23:26;12.70;66.20
36442;DHT22;64346;50.820;16.274;2023-03-19T06:25:53;12.80;65.80
36442;DHT22;64346;50.820;16.274;2023-03-19T06:28:23;12.70;65.90
36442;DHT22;64346;50.820;16.274;2023-03-19T06:30:54;12.40;66.40
36442;DHT22;64346;50.820;16.274;2023-03-19T06:33:22;12.50;66.60
36442;DHT22;64346;50.820;16.274;2023-03-19T06:35:49;12.50;66.10
36442;DHT22;64346;50.820;16.274;2023-03-19T06:38:16;12.80;65.80
36442;DHT22;64346;50.820;16.274;2023-03-19T06:40:44;13.00;65.20
36442;DHT22;64346;50.820;16.274;2023-03-19T06:43:13;12.90;65.10
36442;DHT22;64346;50.820;16.274;2023-03-19T06:45:40;13.50;64.50
36442;DHT22;64346;50.820;16.274;2023-03-19T06:48:08;13.80;63.30
36442;DHT22;64346;50.820;16.274;2023-03-19T06:50:37;13.80;62.90
36442;DHT22;64346;50.820;16.274;2023-03-19T06:53:09;13.50;63.50
36442;DHT22;64346;50.820;16.274;2023-03-19T06:55:39;13.30;63.70
36442;DHT22;64346;50.820;16.274;2023-03-19T06:58:09;13.30;63.80
36442;DHT22;64346;50.820;16.274;2023-03-19T07:00:40;13.80;63.50
36442;DHT22;64346;50.820;16.274;2023-03-19T07:03:10;14.40;62.20
36442;DHT22;64346;50.820;16.274;2023-03-19T07:05:40;13.90;62.40
36442;DHT22;64346;50.820;16.274;2023-03-19T07:08:10;13.90;62.90
36442;DHT22;64346;50.820;16.274;2023-03-19T07:10:37;14.20;62.60
36442;DHT22;64346;50.820;16.274;2023-03-19T07:13:08;15.30;60.90
36442;DHT22;64346;50.820;16.274;2023-03-19T07:15:37;16.00;59.40
36442;DHT22;64346;50.820;16.274;2023-03-19T07:18:09;15.90;59.20
36442;DHT22;64346;50.820;16.274;2023-03-19T07:20:36;16.30;58.60
36442;DHT22;64346;50.820;16.274;2023-03-19T07:23:06;16.70;57.90
36442;DHT22;64346;50.820;16.274;2023-03-19T07:25:33;17.90;56.40
36442;DHT22;64346;50.820;16.274;2023-03-19T07:28:00;19.10;54.50
36442;DHT22;64346;50.820;16.274;2023-03-19T07:30:27;19.60;53.30
36442;DHT22;64346;50.820;16.274;2023-03-19T07:32:55;19.10;53.50
36442;DHT22;64346;50.820;16.274;2023-03-19T07:35:24;18.80;53.90
36442;DHT22;64346;50.820;16.274;2023-03-19T07:37:52;19.20;53.40
36442;DHT22;64346;50.820;16.274;2023-03-19T07:40:21;18.80;53.50
36442;DHT22;64346;50.820;16.274;2023-03-19T07:42:48;18.20;54.40
36442;DHT22;64346;50.820;16.274;2023-03-19T07:45:18;18.20;54.60
36442;DHT22;64346;50.820;16.274;2023-03-19T07:47:45;17.90;55.10
36442;DHT22;64346;50.820;16.274;2023-03-19T07:50:15;18.00;54.80
36442;DHT22;64346;50.820;16.274;2023-03-19T07:52:46;18.50;54.50
36442;DHT22;64346;50.820;16.274;2023-03-19T07:55:16;18.60;54.30
36442;DHT22;64346;50.820;16.274;2023-03-19T07:57:43;18.00;54.70
36442;DHT22;64346;50.820;16.274;2023-03-19T08:00:10;17.40;55.60
36442;DHT22;64346;50.820;16.274;2023-03-19T08:02:38;17.20;56.10
36442;DHT22;64346;50.820;16.274;2023-03-19T08:05:06;17.00;57.00
36442;DHT22;64346;50.820;16.274;2023-03-19T08:07:33;17.90;55.60
36442;DHT22;64346;50.820;16.274;2023-03-19T08:10:02;19.80;53.60
36442;DHT22;64346;50.820;16.274;2023-03-19T08:12:29;22.20;50.40
36442;DHT22;64346;50.820;16.274;2023-03-19T08:14:56;23.60;48.20
36442;DHT22;64346;50.820;16.274;2023-03-19T08:17:24;25.20;46.60
36442;DHT22;64346;50.820;16.274;2023-03-19T08:19:53;25.20;45.00
36442;DHT22;64346;50.820;16.274;2023-03-19T08:22:21;24.80;45.20
36442;DHT22;64346;50.820;16.274;2023-03-19T08:24:48;24.00;46.00
36442;DHT22;64346;50.820;16.274;2023-03-19T08:27:15;24.60;46.00
36442;DHT22;64346;50.820;16.274;2023-03-19T08:29:42;24.90;45.10
36442;DHT22;64346;50.820;16.274;2023-03-19T08:32:12;24.40;45.60
36442;DHT22;64346;50.820;16.274;2023-03-19T08:34:42;24.00;45.80
36442;DHT22;64346;50.820;16.274;2023-03-19T08:37:14;23.60;45.70
36442;DHT22;64346;50.820;16.274;2023-03-19T08:39:43;22.90;46.40
36442;DHT22;64346;50.820;16.274;2023-03-19T08:42:11;21.40;48.00
36442;DHT22;64346;50.820;16.274;2023-03-19T08:44:41;20.70;49.60
36442;DHT22;64346;50.820;16.274;2023-03-19T08:47:08;20.40;50.10
36442;DHT22;64346;50.820;16.274;2023-03-19T08:49:37;20.30;50.30
36442;DHT22;64346;50.820;16.274;2023-03-19T08:52:05;19.90;51.00
36442;DHT22;64346;50.820;16.274;2023-03-19T08:54:32;19.70;51.50
36442;DHT22;64346;50.820;16.274;2023-03-19T08:57:00;19.90;51.70
36442;DHT22;64346;50.820;16.274;2023-03-19T08:59:28;20.10;51.50
36442;DHT22;64346;50.820;16.274;2023-03-19T09:01:55;20.10;51.00
36442;DHT22;64346;50.820;16.274;2023-03-19T09:04:22;20.00;51.50
36442;DHT22;64346;50.820;16.274;2023-03-19T09:06:52;19.50;51.90
36442;DHT22;64346;50.820;16.274;2023-03-19T09:09:21;18.80;53.00
36442;DHT22;64346;50.820;16.274;2023-03-19T09:11:51;17.80;54.70
36442;DHT22;64346;50.820;16.274;2023-03-19T09:14:18;17.40;55.80
36442;DHT22;64346;50.820;16.274;2023-03-19T09:16:48;17.90;55.90
36442;DHT22;64346;50.820;16.274;2023-03-19T09:19:15;19.00;54.20
36442;DHT22;64346;50.820;16.274;2023-03-19T09:21:47;20.00;52.20
36442;DHT22;64346;50.820;16.274;2023-03-19T09:24:16;21.20;50.90
36442;DHT22;64346;50.820;16.274;2023-03-19T09:26:45;22.80;49.50
36442;DHT22;64346;50.820;16.274;2023-03-19T09:29:15;24.60;47.30
36442;DHT22;64346;50.820;16.274;2023-03-19T09:31:42;27.30;45.50
36442;DHT22;64346;50.820;16.274;2023-03-19T09:34:12;29.40;43.10
36442;DHT22;64346;50.820;16.274;2023-03-19T09:36:39;30.90;41.80
36442;DHT22;64346;50.820;16.274;2023-03-19T09:39:09;31.40;40.30
36442;DHT22;64346;50.820;16.274;2023-03-19T09:44:45;31.50;39.50
36442;DHT22;64346;50.820;16.274;2023-03-19T09:49:59;31.80;38.90
36442;DHT22;64346;50.820;16.274;2023-03-19T09:52:44;30.90;38.80
36442;DHT22;64346;50.820;16.274;2023-03-19T09:55:40;29.20;39.60
36442;DHT22;64346;50.820;16.274;2023-03-19T09:58:30;27.20;41.00
36442;DHT22;64346;50.820;16.274;2023-03-19T10:01:00;25.30;42.90
36442;DHT22;64346;50.820;16.274;2023-03-19T10:04:00;24.50;44.10
36442;DHT22;64346;50.820;16.274;2023-03-19T10:06:33;24.60;44.40
36442;DHT22;64346;50.820;16.274;2023-03-19T10:17:14;25.00;43.60
36442;DHT22;64346;50.820;16.274;2023-03-19T10:22:18;26.30;43.10
36442;DHT22;64346;50.820;16.274;2023-03-19T10:24:57;27.70;42.00
36442;DHT22;64346;50.820;16.274;2023-03-19T10:27:29;29.20;41.50
36442;DHT22;64346;50.820;16.274;2023-03-19T10:29:57;30.40;40.50
36442;DHT22;64346;50.820;16.274;2023-03-19T10:32:43;31.50;39.50
36442;DHT22;64346;50.820;16.274;2023-03-19T10:35:23;32.20;38.80
36442;DHT22;64346;50.820;16.274;2023-03-19T10:37:52;32.70;38.10
36442;DHT22;64346;50.820;16.274;2023-03-19T10:40:27;33.10;37.90
36442;DHT22;64346;50.820;16.274;2023-03-19T10:43:10;32.70;37.90
36442;DHT22;64346;50.820;16.274;2023-03-19T10:45:39;30.90;38.20
36442;DHT22;64346;50.820;16.274;2023-03-19T10:48:14;30.10;38.90
36442;DHT22;64346;50.820;16.274;2023-03-19T10:50:52;29.70;39.30
36442;DHT22;64346;50.820;16.274;2023-03-19T10:58:35;28.30;40.40
36442;DHT22;64346;50.820;16.274;2023-03-19T11:01:11;27.60;40.70
36442;DHT22;64346;50.820;16.274;2023-03-19T11:03:55;27.20;41.30
36442;DHT22;64346;50.820;16.274;2023-03-19T11:06:34;27.10;41.50
36442;DHT22;64346;50.820;16.274;2023-03-19T11:09:17;27.20;41.00
36442;DHT22;64346;50.820;16.274;2023-03-19T11:11:47;27.30;41.10
36442;DHT22;64346;50.820;16.274;2023-03-19T11:14:24;27.20;40.90
36442;DHT22;64346;50.820;16.274;2023-03-19T11:19:39;26.40;41.10
36442;DHT22;64346;50.820;16.274;2023-03-19T11:24:38;26.40;41.30
36442;DHT22;64346;50.820;16.274;2023-03-19T11:27:07;26.50;41.40
36442;DHT22;64346;50.820;16.274;2023-03-19T11:29:41;26.10;41.40
36442;DHT22;64346;50.820;16.274;2023-03-19T11:32:39;26.00;41.80
36442;DHT22;64346;50.820;16.274;2023-03-19T11:35:48;25.80;41.60
36442;DHT22;64346;50.820;16.274;2023-03-19T11:38:29;24.80;42.80
36442;DHT22;64346;50.820;16.274;2023-03-19T11:43:48;23.30;44.70
36442;DHT22;64346;50.820;16.274;2023-03-19T11:49:11;22.10;45.90
36442;DHT22;64346;50.820;16.274;2023-03-19T11:51:50;21.80;47.10
36442;DHT22;64346;50.820;16.274;2023-03-19T12:00:30;20.90;47.30
36442;DHT22;64346;50.820;16.274;2023-03-19T12:15:04;20.00;49.60
36442;DHT22;64346;50.820;16.274;2023-03-19T12:29:38;19.80;50.10
36442;DHT22;64346;50.820;16.274;2023-03-19T12:31:42;19.50;50.10
36442;DHT22;64346;50.820;16.274;2023-03-19T12:39:34;18.70;51.20
36442;DHT22;64346;50.820;16.274;2023-03-19T12:42:04;18.60;51.40
36442;DHT22;64346;50.820;16.274;2023-03-19T12:44:45;18.50;52.40
36442;DHT22;64346;50.820;16.274;2023-03-19T12:47:30;18.50;52.20
36442;DHT22;64346;50.820;16.274;2023-03-19T12:50:05;18.40;52.30
36442;DHT22;64346;50.820;16.274;2023-03-19T12:52:37;18.30;52.60
36442;DHT22;64346;50.820;16.274;2023-03-19T12:58:00;18.10;53.10
36442;DHT22;64346;50.820;16.274;2023-03-19T13:00:32;18.00;53.50
36442;DHT22;64346;50.820;16.274;2023-03-19T13:08:44;18.10;54.60
36442;DHT22;64346;50.820;16.274;2023-03-19T13:11:22;18.20;53.60
36442;DHT22;64346;50.820;16.274;2023-03-19T13:16:56;18.00;53.90
36442;DHT22;64346;50.820;16.274;2023-03-19T13:19:44;18.00;54.20
36442;DHT22;64346;50.820;16.274;2023-03-19T13:22:19;18.10;53.80
36442;DHT22;64346;50.820;16.274;2023-03-19T13:24:48;18.10;54.10
36442;DHT22;64346;50.820;16.274;2023-03-19T13:27:32;18.30;54.50
36442;DHT22;64346;50.820;16.274;2023-03-19T13:30:01;18.20;53.70
36442;DHT22;64346;50.820;16.274;2023-03-19T13:32:44;18.10;54.00
36442;DHT22;64346;50.820;16.274;2023-03-19T13:40:58;18.40;54.20
36442;DHT22;64346;50.820;16.274;2023-03-19T13:56:19;17.80;56.40
36442;DHT22;64346;50.820;16.274;2023-03-19T14:01:42;17.80;56.50
36442;DHT22;64346;50.820;16.274;2023-03-19T14:04:29;17.80;56.80
36442;DHT22;64346;50.820;16.274;2023-03-19T14:07:11;17.80;56.90
36442;DHT22;64346;50.820;16.274;2023-03-19T14:20:24;18.00;58.00
36442;DHT22;64346;50.820;16.274;2023-03-19T14:29:10;18.00;57.80
36442;DHT22;64346;50.820;16.274;2023-03-19T14:39:39;17.70;57.90
36442;DHT22;64346;50.820;16.274;2023-03-19T14:42:21;17.60;58.00
36442;DHT22;64346;50.820;16.274;2023-03-19T14:56:34;17.20;59.10
36442;DHT22;64346;50.820;16.274;2023-03-19T14:59:01;17.20;58.90
36442;DHT22;64346;50.820;16.274;2023-03-19T15:01:31;17.10;58.90
36442;DHT22;64346;50.820;16.274;2023-03-19T15:04:09;17.10;59.00
36442;DHT22;64346;50.820;16.274;2023-03-19T15:06:40;16.90;59.30
36442;DHT22;64346;50.820;16.274;2023-03-19T15:09:18;16.80;59.80
36442;DHT22;64346;50.820;16.274;2023-03-19T15:14:45;16.70;60.00
36442;DHT22;64346;50.820;16.274;2023-03-19T15:17:30;16.70;60.10
36442;DHT22;64346;50.820;16.274;2023-03-19T15:20:07;16.70;60.30
36442;DHT22;64346;50.820;16.274;2023-03-19T15:22:39;16.60;60.30
36442;DHT22;64346;50.820;16.274;2023-03-19T15:25:13;16.70;60.80
36442;DHT22;64346;50.820;16.274;2023-03-19T15:27:41;16.60;61.00
36442;DHT22;64346;50.820;16.274;2023-03-19T15:32:46;16.60;61.00
36442;DHT22;64346;50.820;16.274;2023-03-19T15:35:30;16.60;60.90
36442;DHT22;64346;50.820;16.274;2023-03-19T15:38:05;16.50;61.20
36442;DHT22;64346;50.820;16.274;2023-03-19T15:40:34;16.40;61.70
36442;DHT22;64346;50.820;16.274;2023-03-19T15:43:05;16.30;61.80
36442;DHT22;64346;50.820;16.274;2023-03-19T15:45:36;16.30;61.90
36442;DHT22;64346;50.820;16.274;2023-03-19T15:48:27;16.30;62.10
36442;DHT22;64346;50.820;16.274;2023-03-19T15:51:00;16.40;62.10
36442;DHT22;64346;50.820;16.274;2023-03-19T15:53:32;16.40;61.80
36442;DHT22;64346;50.820;16.274;2023-03-19T15:56:05;16.30;62.60
36442;DHT22;64346;50.820;16.274;2023-03-19T15:58:38;16.30;62.40
36442;DHT22;64346;50.820;16.274;2023-03-19T16:01:10;16.20;62.60
36442;DHT22;64346;50.820;16.274;2023-03-19T16:03:40;16.20;63.60
36442;DHT22;64346;50.820;16.274;2023-03-19T16:06:29;16.10;63.00
36442;DHT22;64346;50.820;16.274;2023-03-19T16:11:57;15.80;63.90
36442;DHT22;64346;50.820;16.274;2023-03-19T16:14:41;15.70;64.30
36442;DHT22;64346;50.820;16.274;2023-03-19T16:17:16;15.60;64.50
36442;DHT22;64346;50.820;16.274;2023-03-19T16:19:53;15.50;64.90
36442;DHT22;64346;50.820;16.274;2023-03-19T16:22:23;15.40;65.50
36442;DHT22;64346;50.820;16.274;2023-03-19T16:24:51;15.30;65.80
36442;DHT22;64346;50.820;16.274;2023-03-19T16:27:21;15.20;68.70
36442;DHT22;64346;50.820;16.274;2023-03-19T16:29:58;15.00;69.70
36442;DHT22;64346;50.820;16.274;2023-03-19T16:32:28;14.90;69.50
36442;DHT22;64346;50.820;16.274;2023-03-19T16:37:42;14.70;69.30
36442;DHT22;64346;50.820;16.274;2023-03-19T16:42:41;14.40;69.90
36442;DHT22;64346;50.820;16.274;2023-03-19T16:45:30;14.30;72.30
36442;DHT22;64346;50.820;16.274;2023-03-19T16:47:59;14.10;71.20
36442;DHT22;64346;50.820;16.274;2023-03-19T16:50:32;14.00;71.80
36442;DHT22;64346;50.820;16.274;2023-03-19T16:53:19;13.90;72.20
36442;DHT22;64346;50.820;16.274;2023-03-19T16:55:47;13.80;72.60
36442;DHT22;64346;50.820;16.274;2023-03-19T16:58:17;13.70;74.10
36442;DHT22;64346;50.820;16.274;2023-03-19T17:00:45;13.40;74.00
36442;DHT22;64346;50.820;16.274;2023-03-19T17:03:18;13.30;76.20
36442;DHT22;64346;50.820;16.274;2023-03-19T17:05:48;13.20;75.90
36442;DHT22;64346;50.820;16.274;2023-03-19T17:08:18;13.10;77.10
36442;DHT22;64346;50.820;16.274;2023-03-19T17:10:47;12.90;77.90
36442;DHT22;64346;50.820;16.274;2023-03-19T17:13:27;12.80;78.20
36442;DHT22;64346;50.820;16.274;2023-03-19T17:16:01;12.70;78.50
36442;DHT22;64346;50.820;16.274;2023-03-19T17:18:30;12.70;79.30
36442;DHT22;64346;50.820;16.274;2023-03-19T17:23:31;12.50;80.10
36442;DHT22;64346;50.820;16.274;2023-03-19T17:26:01;12.50;80.50
36442;DHT22;64346;50.820;16.274;2023-03-19T17:28:28;12.40;81.10
36442;DHT22;64346;50.820;16.274;2023-03-19T17:30:55;12.30;80.20
36442;DHT22;64346;50.820;16.274;2023-03-19T17:33:28;12.30;82.60
36442;DHT22;64346;50.820;16.274;2023-03-19T17:35:58;12.20;83.00
36442;DHT22;64346;50.820;16.274;2023-03-19T17:38:33;12.10;83.00
36442;DHT22;64346;50.820;16.274;2023-03-19T17:41:01;12.10;82.80
36442;DHT22;64346;50.820;16.274;2023-03-19T17:43:28;12.00;83.10
36442;DHT22;64346;50.820;16.274;2023-03-19T17:45:55;11.90;83.40
36442;DHT22;64346;50.820;16.274;2023-03-19T17:48:24;11.90;83.70
36442;DHT22;64346;50.820;16.274;2023-03-19T17:50:56;11.80;84.30
36442;DHT22;64346;50.820;16.274;2023-03-19T17:53:27;11.80;84.90
36442;DHT22;64346;50.820;16.274;2023-03-19T17:55:57;11.80;85.60
36442;DHT22;64346;50.820;16.274;2023-03-19T17:58:27;11.80;87.30
36442;DHT22;64346;50.820;16.274;2023-03-19T18:00:54;11.70;86.90
36442;DHT22;64346;50.820;16.274;2023-03-19T18:03:23;11.70;87.40
36442;DHT22;64346;50.820;16.274;2023-03-19T18:05:50;11.70;88.00
36442;DHT22;64346;50.820;16.274;2023-03-19T18:08:20;11.70;87.60
36442;DHT22;64346;50.820;16.274;2023-03-19T18:10:47;11.70;87.80
36442;DHT22;64346;50.820;16.274;2023-03-19T18:13:16;11.60;88.60
36442;DHT22;64346;50.820;16.274;2023-03-19T18:15:44;11.60;89.60
36442;DHT22;64346;50.820;16.274;2023-03-19T18:18:22;11.60;89.10
36442;DHT22;64346;50.820;16.274;2023-03-19T18:20:49;11.60;89.00
36442;DHT22;64346;50.820;16.274;2023-03-19T18:23:17;11.60;89.70
36442;DHT22;64346;50.820;16.274;2023-03-19T18:25:45;11.60;90.00
36442;DHT22;64346;50.820;16.274;2023-03-19T18:28:14;11.60;90.40
36442;DHT22;64346;50.820;16.274;2023-03-19T18:30:42;11.60;90.30